Sunset Beach, NC

8:12 PM EDT on September 27, 2016 (GMT -0400)
Sunset Ridge | | Change Station

Elev -7 ft 33.90 °N, 78.49 °W | Updated 17 seconds ago

Clear
Clear
74.3 °F
Feels Like 74 °F
N
0.0
Wind Variable Wind from NE

Today
High -- | Low -- °F
--% Chance of Precip.
Yesterday
High -- | Low -- °F
Precip. -- in
Pressure 29.89 in
Visibility 10.0 miles
Clouds Clear
Heat Index 74 °F
Dew Point 69 °F
Humidity 85%
Rainfall 0.04 in
Snow Depth Not available.
7:05 AM 7:03 PM
Waning Crescent, 9% visible
METAR KCRE 272353Z 13003KT 10SM CLR 26/21 A2989 RMK AO1 SLP122 T02610206 10294 20256 53007
Pressure 29.89 in
Visibility 10.0 miles
Clouds Clear
Heat Index 74 °F
Dew Point 69 °F
Humidity 85%
Rainfall 0.04 in
Snow Depth Not available.
7:05 AM 7:03 PM
Waning Crescent, 9% visible
METAR KCRE 272353Z 13003KT 10SM CLR 26/21 A2989 RMK AO1 SLP122 T02610206 10294 20256 53007

10-Day Weather Forecast

Almanac

Astronomy

Sep. 27, 2016 Rise Set
Actual Time
Civil Twilight
Nautical Twilight
Astronomical Twilight
Moon
Length of Visible Light
Length of Day
Tomorrow will be .
, % of the Moon is Illuminated

Today's Extremes

State Highs State Lows

Community

WunderPhotos

Upload Photos

1,942,179 photos uploaded!

WunderBlog® & News

Nearby

Air Quality

  Air Quality AQ Index Pollutant
Not available.

Snow Depth

Station Depth Elevation

Earthquake Activity

City Distance Mag. Time & Date
Minimum magnitude displayed is 2.5.

Coastal Water Temperatures

Place Temperature

Stations

Nearby Weather Stations

Station Location Temp. Windchill Dew Point Humidity Wind Precip. Elev Updated Type
                   

Watches & Warnings

There are currently no watches in effect.